Time;durP1;ratioP1;P1;durP2;ratioP2;P2;SDS_P1;SDS_P2;PMS_P1;PMS_P2;Temp;Humidity;BMP_temperature;BMP_pressure;BME280_temperature;BME280_humidity;BME280_pressure;Samples;Min_cycle;Max_cycle;Signal;HPM_P1;HPM_P2
2021/08/23 00:00:10;;;;;;;11.80;8.63;;;14.50;99.90;;;;;;5073965;28;20025;-74
2021/08/23 00:02:36;;;;;;;14.43;8.52;;;14.50;99.90;;;;;;5073960;28;20032;-72
2021/08/23 00:05:02;;;;;;;13.40;7.38;;;14.40;99.90;;;;;;5072660;28;20025;-72
2021/08/23 00:07:28;;;;;;;15.68;9.48;;;14.40;99.90;;;;;;5073441;28;20375;-72
2021/08/23 00:09:53;;;;;;;15.98;8.75;;;14.60;99.90;;;;;;5073056;28;20107;-72
2021/08/23 00:12:19;;;;;;;13.30;9.13;;;14.60;99.90;;;;;;5073480;28;20100;-72
2021/08/23 00:14:45;;;;;;;14.48;8.40;;;14.60;99.90;;;;;;5072958;28;20482;-72
2021/08/23 00:17:10;;;;;;;11.80;7.97;;;14.50;99.90;;;;;;5073040;28;20040;-73
2021/08/23 00:19:36;;;;;;;10.48;8.13;;;14.50;99.90;;;;;;5072952;28;20024;-73
2021/08/23 00:22:20;;;;;;;15.57;7.53;;;14.50;99.90;;;;;;5072836;28;20021;-73
2021/08/23 00:24:47;;;;;;;8.65;7.30;;;14.50;99.90;;;;;;5072185;28;20056;-73
2021/08/23 00:27:13;;;;;;;12.30;7.45;;;14.60;99.90;;;;;;5072637;28;20085;-73
2021/08/23 00:29:38;;;;;;;7.75;6.72;;;14.50;99.90;;;;;;5072838;28;20020;-72
2021/08/23 00:32:04;;;;;;;10.05;6.75;;;14.60;99.90;;;;;;5072662;28;20024;-72
2021/08/23 00:34:30;;;;;;;11.77;6.68;;;14.60;99.90;;;;;;5072078;28;20020;-72
2021/08/23 00:36:56;;;;;;;8.20;6.65;;;14.70;99.90;;;;;;5072749;28;20486;-72
2021/08/23 00:39:21;;;;;;;8.52;6.05;;;14.60;99.90;;;;;;5072263;28;20052;-72
2021/08/23 00:41:47;;;;;;;12.57;7.18;;;14.60;99.90;;;;;;5072766;28;20390;-73
2021/08/23 00:44:12;;;;;;;13.35;7.25;;;14.50;99.90;;;;;;5072602;28;20060;-72
2021/08/23 00:46:38;;;;;;;8.18;6.07;;;14.70;99.90;;;;;;5071950;28;20103;-72
2021/08/23 00:49:05;;;;;;;9.48;6.63;;;14.70;99.90;;;;;;5072435;28;20039;-73
2021/08/23 00:51:31;;;;;;;11.75;7.82;;;14.80;99.90;;;;;;5072734;28;20025;-72
2021/08/23 00:53:57;;;;;;;7.75;6.97;;;14.80;99.90;;;;;;5072287;28;20041;-73
2021/08/23 00:56:23;;;;;;;12.57;8.43;;;14.90;99.90;;;;;;5071898;28;20414;-72
2021/08/23 00:58:52;;;;;;;12.13;7.80;;;14.90;99.90;;;;;;5072316;28;20389;-74
2021/08/23 01:01:55;;;;;;;14.18;8.20;;;14.90;99.90;;;;;;5072169;28;20020;-73
2021/08/23 01:04:23;;;;;;;;;;;14.90;99.90;;;;;;5072194;28;20055;-73
2021/08/23 01:06:49;;;;;;;7.68;6.82;;;14.90;99.90;;;;;;5071962;28;19915;-74
2021/08/23 01:09:16;;;;;;;15.13;7.35;;;14.90;99.90;;;;;;5071807;28;20029;-73
2021/08/23 01:11:51;;;;;;;15.20;8.30;;;14.90;99.90;;;;;;5072086;28;20031;-74
2021/08/23 01:14:17;;;;;;;8.43;6.93;;;15.00;99.90;;;;;;5071627;28;20032;-74
2021/08/23 01:16:43;;;;;;;12.27;7.50;;;15.10;99.90;;;;;;5070977;28;20029;-74
2021/08/23 01:19:10;;;;;;;17.27;8.60;;;15.10;99.90;;;;;;5072178;28;20035;-74
2021/08/23 01:21:36;;;;;;;10.80;8.63;;;15.20;99.90;;;;;;5071318;28;20055;-74
2021/08/23 01:24:07;;;;;;;16.30;7.55;;;15.10;99.90;;;;;;5070606;28;20024;-75
2021/08/23 01:26:39;;;;;;;11.98;7.60;;;15.10;99.90;;;;;;5071063;28;20032;-74
2021/08/23 01:29:26;;;;;;;10.73;7.15;;;15.00;99.90;;;;;;5072168;28;20020;-74
2021/08/23 01:32:00;;;;;;;15.60;7.68;;;15.00;99.90;;;;;;5072516;28;20103;-74
2021/08/23 01:34:27;;;;;;;11.55;7.70;;;15.10;99.90;;;;;;5072053;28;20031;-75
2021/08/23 01:36:53;;;;;;;12.07;8.00;;;15.10;99.90;;;;;;5071985;28;20039;-76
2021/08/23 01:39:20;;;;;;;7.78;6.97;;;15.20;99.90;;;;;;5071673;28;20029;-74
2021/08/23 01:41:46;;;;;;;15.18;7.97;;;15.00;99.90;;;;;;5071796;28;20024;-73
2021/08/23 01:44:11;;;;;;;11.98;7.65;;;15.00;99.90;;;;;;5071960;28;20029;-73
2021/08/23 01:46:37;;;;;;;9.52;6.63;;;15.10;99.90;;;;;;5070927;28;20024;-73
2021/08/23 01:49:05;;;;;;;10.52;6.90;;;15.00;99.90;;;;;;5071722;28;20360;-72
2021/08/23 01:51:31;;;;;;;14.50;7.10;;;15.00;99.90;;;;;;5071657;28;20438;-73
2021/08/23 01:53:57;;;;;;;10.82;6.55;;;15.10;99.90;;;;;;5070580;28;20029;-74
2021/08/23 01:56:23;;;;;;;9.90;7.63;;;15.10;99.90;;;;;;5069771;28;20487;-74
2021/08/23 01:58:49;;;;;;;12.80;7.63;;;15.10;99.90;;;;;;5071783;28;20475;-74
2021/08/23 02:01:16;;;;;;;16.90;8.35;;;15.20;99.90;;;;;;5072360;28;20033;-73
2021/08/23 02:03:41;;;;;;;16.38;8.52;;;15.20;99.90;;;;;;5071669;28;20086;-73
2021/08/23 02:06:08;;;;;;;11.57;8.38;;;15.20;99.90;;;;;;5070555;28;20028;-74
2021/08/23 02:08:34;;;;;;;11.43;8.13;;;15.20;99.90;;;;;;5071486;28;20028;-73
2021/08/23 02:10:59;;;;;;;11.73;7.50;;;15.20;99.90;;;;;;5070268;28;20017;-73
2021/08/23 02:13:25;;;;;;;15.43;7.70;;;15.10;99.90;;;;;;5071588;28;20036;-74
2021/08/23 02:15:51;;;;;;;9.15;6.90;;;15.20;99.90;;;;;;5070528;28;20402;-73
2021/08/23 02:18:16;;;;;;;12.07;7.82;;;15.10;99.90;;;;;;5071290;28;20123;-73
2021/08/23 02:20:42;;;;;;;9.98;7.25;;;15.10;99.90;;;;;;5071283;28;20028;-74
2021/08/23 02:23:07;;;;;;;11.60;6.28;;;15.10;99.90;;;;;;5070957;28;20086;-73
2021/08/23 02:25:33;;;;;;;9.27;6.70;;;15.00;99.90;;;;;;5069511;28;20376;-73
2021/08/23 02:27:59;;;;;;;10.60;7.28;;;15.00;99.90;;;;;;5071406;28;20043;-74
2021/08/23 02:30:25;;;;;;;9.77;6.65;;;15.10;99.90;;;;;;5071249;28;20025;-74
2021/08/23 02:32:50;;;;;;;9.52;6.40;;;15.10;99.90;;;;;;5071625;28;20048;-73
2021/08/23 02:35:17;;;;;;;9.90;6.47;;;15.20;99.90;;;;;;5074421;28;20020;-73
2021/08/23 02:37:43;;;;;;;12.73;7.13;;;15.20;99.90;;;;;;5074739;28;20098;-73
2021/08/23 02:40:09;;;;;;;15.05;7.20;;;15.20;99.90;;;;;;5074560;28;20025;-74
2021/08/23 02:42:36;;;;;;;11.20;7.25;;;15.40;99.90;;;;;;5074967;28;20386;-74
2021/08/23 02:45:02;;;;;;;11.43;6.72;;;15.30;99.90;;;;;;5074562;28;20025;-76
2021/08/23 02:47:28;;;;;;;11.65;7.38;;;15.20;99.90;;;;;;5074609;28;20028;-75
2021/08/23 02:49:54;;;;;;;11.10;8.23;;;15.20;99.90;;;;;;5074491;28;20025;-74
2021/08/23 02:52:19;;;;;;;12.70;8.15;;;15.30;99.90;;;;;;5074620;28;20020;-75
2021/08/23 02:54:45;;;;;;;12.30;8.38;;;15.20;99.90;;;;;;5073239;28;20032;-74
2021/08/23 02:57:11;;;;;;;15.00;7.72;;;15.30;99.90;;;;;;5074471;28;20031;-75
2021/08/23 02:59:36;;;;;;;14.10;8.20;;;15.20;99.90;;;;;;5074582;28;20028;-74
2021/08/23 03:02:02;;;;;;;13.93;7.72;;;15.20;99.90;;;;;;5074389;28;20050;-74
2021/08/23 03:04:28;;;;;;;11.93;7.50;;;15.20;99.90;;;;;;5073693;28;20081;-74
2021/08/23 03:06:53;;;;;;;15.77;7.20;;;15.30;99.90;;;;;;5074289;28;20047;-74
2021/08/23 03:09:19;;;;;;;17.48;7.85;;;15.30;99.90;;;;;;5074110;28;20024;-74
2021/08/23 03:11:44;;;;;;;15.35;8.30;;;15.20;99.90;;;;;;5074284;28;20070;-75
2021/08/23 03:14:10;;;;;;;11.73;7.15;;;15.30;99.90;;;;;;5074446;28;20517;-74
2021/08/23 03:16:36;;;;;;;11.07;7.70;;;15.30;99.90;;;;;;5073623;28;20052;-75
2021/08/23 03:19:01;;;;;;;12.88;7.93;;;15.30;99.90;;;;;;5073190;28;20068;-74
2021/08/23 03:21:27;;;;;;;16.23;8.07;;;15.30;99.90;;;;;;5072999;28;20111;-74
2021/08/23 03:23:53;;;;;;;19.65;8.25;;;15.30;99.90;;;;;;5073998;28;20071;-75
2021/08/23 03:26:19;;;;;;;14.55;7.57;;;15.20;99.90;;;;;;5073180;28;20044;-73
2021/08/23 03:28:46;;;;;;;9.57;7.10;;;15.20;99.90;;;;;;5074235;28;20056;-75
2021/08/23 03:31:11;;;;;;;10.75;6.72;;;15.30;99.90;;;;;;5074080;28;20544;-72
2021/08/23 03:33:39;;;;;;;14.43;6.88;;;15.30;99.90;;;;;;5074090;28;20028;-73
2021/08/23 03:36:05;;;;;;;11.38;7.13;;;15.30;99.90;;;;;;5073504;28;20670;-73
2021/08/23 03:38:31;;;;;;;7.40;6.15;;;15.30;99.90;;;;;;5073968;28;20020;-75
2021/08/23 03:40:57;;;;;;;12.60;6.88;;;15.20;99.90;;;;;;5073920;28;20134;-73
2021/08/23 03:43:23;;;;;;;11.20;7.03;;;15.20;99.90;;;;;;5074059;28;20112;-75
2021/08/23 03:45:49;;;;;;;20.20;7.32;;;15.10;99.90;;;;;;5072125;28;20028;-75
2021/08/23 03:48:14;;;;;;;11.73;5.95;;;15.20;99.90;;;;;;5073706;28;20021;-75
2021/08/23 03:50:40;;;;;;;8.90;6.28;;;15.30;99.90;;;;;;5073721;28;20025;-73
2021/08/23 03:53:05;;;;;;;6.93;5.85;;;15.30;99.90;;;;;;5073324;28;20505;-74
2021/08/23 03:55:31;;;;;;;8.45;6.70;;;15.30;99.90;;;;;;5072895;28;20025;-75
2021/08/23 03:57:57;;;;;;;11.10;6.38;;;15.30;99.90;;;;;;5073753;28;20459;-73
2021/08/23 04:00:22;;;;;;;11.98;7.10;;;15.30;99.90;;;;;;5072278;28;20028;-73
2021/08/23 04:02:48;;;;;;;15.55;7.63;;;15.30;99.90;;;;;;5073266;28;20033;-75
2021/08/23 04:05:14;;;;;;;13.60;7.97;;;15.40;99.90;;;;;;5072823;28;20029;-74
2021/08/23 04:07:39;;;;;;;10.00;6.93;;;15.30;99.90;;;;;;5073491;28;20454;-75
2021/08/23 04:10:06;;;;;;;16.65;6.78;;;15.30;99.90;;;;;;5073050;28;20016;-74
2021/08/23 04:12:32;;;;;;;12.40;6.30;;;15.10;99.90;;;;;;5073172;28;20025;-75
2021/08/23 04:14:59;;;;;;;12.07;6.57;;;15.00;99.90;;;;;;5072778;28;20030;-75
2021/08/23 04:17:25;;;;;;;9.75;6.57;;;15.10;99.90;;;;;;5066962;28;20025;-74
2021/08/23 04:19:51;;;;;;;10.52;7.32;;;15.10;99.90;;;;;;5068698;28;20138;-75
2021/08/23 04:22:17;;;;;;;11.10;6.50;;;15.20;99.90;;;;;;5072822;28;20039;-74
2021/08/23 04:24:42;;;;;;;20.23;7.05;;;15.20;99.90;;;;;;5071367;28;20403;-75
2021/08/23 04:27:08;;;;;;;13.27;6.20;;;15.20;99.90;;;;;;5071714;28;20025;-74
2021/08/23 04:29:34;;;;;;;12.75;7.25;;;15.20;99.90;;;;;;5071196;28;20521;-72
2021/08/23 04:31:59;;;;;;;11.73;7.50;;;15.30;99.90;;;;;;5072547;28;20017;-75
2021/08/23 04:34:25;;;;;;;10.82;7.53;;;15.30;99.90;;;;;;5071902;28;20032;-74
2021/08/23 04:36:51;;;;;;;10.25;7.38;;;15.30;99.90;;;;;;5072221;28;20489;-74
2021/08/23 04:39:16;;;;;;;9.88;6.88;;;15.20;99.90;;;;;;5071744;28;20021;-73
2021/08/23 04:41:42;;;;;;;17.48;7.32;;;15.20;99.90;;;;;;5072074;28;20025;-75
2021/08/23 04:44:09;;;;;;;13.45;6.72;;;15.30;99.90;;;;;;5072300;28;20029;-75
2021/08/23 04:46:36;;;;;;;14.30;6.55;;;15.30;99.90;;;;;;5071376;28;20402;-75
2021/08/23 04:49:02;;;;;;;10.35;6.22;;;15.30;99.90;;;;;;5071662;28;20021;-75
2021/08/23 04:51:28;;;;;;;11.07;5.97;;;15.30;99.90;;;;;;5071875;28;20023;-75
2021/08/23 04:53:53;;;;;;;11.63;6.63;;;15.30;99.90;;;;;;5072832;28;20021;-75
2021/08/23 04:56:19;;;;;;;10.80;6.60;;;15.30;99.90;;;;;;5071896;28;20044;-74
2021/08/23 04:58:45;;;;;;;8.40;6.43;;;15.40;99.90;;;;;;5072228;28;20611;-73
2021/08/23 05:01:11;;;;;;;8.95;6.28;;;15.30;99.90;;;;;;5070542;28;20471;-73
2021/08/23 05:03:37;;;;;;;13.88;6.18;;;15.40;99.90;;;;;;5070637;28;20103;-73
2021/08/23 05:06:03;;;;;;;7.20;5.82;;;15.40;99.90;;;;;;5069797;28;20115;-73
2021/08/23 05:08:29;;;;;;;7.47;5.80;;;15.40;99.90;;;;;;5070019;28;20363;-73
2021/08/23 05:10:55;;;;;;;9.85;5.47;;;15.40;99.90;;;;;;5069988;28;20027;-75
2021/08/23 05:13:20;;;;;;;6.97;6.07;;;15.40;99.90;;;;;;5070183;28;20017;-71
2021/08/23 05:15:46;;;;;;;10.50;6.18;;;15.50;99.90;;;;;;5068325;28;20127;-71
2021/08/23 05:18:12;;;;;;;6.05;5.43;;;15.50;99.90;;;;;;5051667;28;20040;-70
2021/08/23 05:20:37;;;;;;;5.28;4.78;;;15.70;99.90;;;;;;5056385;28;20032;-72
2021/08/23 05:23:03;;;;;;;9.57;5.57;;;15.80;99.90;;;;;;5053755;28;20043;-73
2021/08/23 05:25:29;;;;;;;11.20;5.50;;;15.90;99.90;;;;;;5049588;28;20040;-72
2021/08/23 05:27:54;;;;;;;8.80;5.75;;;15.90;99.90;;;;;;5051630;28;20094;-73
2021/08/23 05:30:20;;;;;;;9.45;4.82;;;15.90;99.90;;;;;;5051248;28;20388;-71
2021/08/23 05:32:46;;;;;;;9.25;5.22;;;16.00;99.90;;;;;;5051086;28;20467;-72
2021/08/23 05:35:12;;;;;;;6.75;4.07;;;15.90;99.90;;;;;;5049999;28;20057;-72
2021/08/23 05:37:38;;;;;;;5.68;4.97;;;15.90;99.90;;;;;;5050933;28;20025;-73
2021/08/23 05:40:04;;;;;;;8.43;4.13;;;15.80;99.90;;;;;;5050613;28;20479;-72
2021/08/23 05:42:30;;;;;;;8.07;3.92;;;15.90;99.90;;;;;;5050433;28;20021;-72
2021/08/23 05:44:56;;;;;;;4.50;3.97;;;15.90;99.90;;;;;;5049352;28;20028;-71
2021/08/23 05:47:22;;;;;;;9.32;3.65;;;15.80;99.90;;;;;;5050254;28;20024;-73
2021/08/23 05:49:48;;;;;;;8.13;3.60;;;15.60;99.90;;;;;;5050052;28;20386;-71
2021/08/23 05:52:14;;;;;;;3.80;3.15;;;15.50;99.90;;;;;;5068461;28;20036;-70
2021/08/23 05:54:40;;;;;;;6.30;3.50;;;15.50;99.90;;;;;;5068337;28;20025;-70
2021/08/23 05:57:06;;;;;;;4.40;3.25;;;15.50;99.90;;;;;;5065547;28;20398;-71
2021/08/23 05:59:32;;;;;;;3.97;2.92;;;15.70;99.90;;;;;;5069343;28;20024;-70
2021/08/23 06:01:58;;;;;;;6.90;3.55;;;15.80;99.90;;;;;;5070768;28;20043;-73
2021/08/23 06:04:24;;;;;;;7.78;3.58;;;16.00;99.90;;;;;;5068697;28;20035;-70
2021/08/23 06:06:51;;;;;;;6.30;3.47;;;16.20;99.90;;;;;;5070389;28;20471;-73
2021/08/23 06:09:17;;;;;;;7.63;4.35;;;16.20;99.90;;;;;;5073896;28;20028;-71
2021/08/23 06:11:43;;;;;;;7.07;3.15;;;16.40;99.90;;;;;;5073264;28;20032;-73
2021/08/23 06:14:09;;;;;;;6.15;3.08;;;16.50;99.90;;;;;;5075227;28;20433;-70
2021/08/23 06:16:35;;;;;;;6.05;3.17;;;16.50;99.90;;;;;;5073482;28;20035;-72
2021/08/23 06:19:01;;;;;;;4.90;3.10;;;16.70;99.90;;;;;;5073937;28;20032;-73
2021/08/23 06:21:27;;;;;;;4.72;2.83;;;16.80;99.90;;;;;;5075152;28;20099;-70
2021/08/23 06:23:53;;;;;;;2.90;1.90;;;16.70;99.90;;;;;;5074898;28;20048;-77
2021/08/23 06:26:18;;;;;;;5.05;2.53;;;16.70;99.90;;;;;;5074127;28;20025;-72
2021/08/23 06:28:44;;;;;;;3.10;2.05;;;16.90;99.90;;;;;;5074334;28;20035;-74
2021/08/23 06:31:10;;;;;;;5.65;2.35;;;16.70;99.90;;;;;;5074225;28;20025;-72
2021/08/23 06:33:36;;;;;;;8.85;2.88;;;16.70;99.90;;;;;;5071899;28;20028;-72
2021/08/23 06:36:02;;;;;;;3.15;2.50;;;16.70;99.90;;;;;;5073674;28;20033;-71
2021/08/23 06:38:28;;;;;;;6.57;2.47;;;16.60;99.90;;;;;;5074207;28;20024;-72
2021/08/23 06:40:54;;;;;;;3.08;2.20;;;16.80;99.90;;;;;;5074799;28;20036;-72
2021/08/23 06:43:19;;;;;;;8.20;2.75;;;16.80;99.90;;;;;;5074232;28;20058;-73
2021/08/23 06:45:45;;;;;;;4.85;2.85;;;16.80;99.90;;;;;;5073358;28;20090;-73
2021/08/23 06:48:11;;;;;;;3.92;2.40;;;16.80;99.90;;;;;;5073649;28;20107;-74
2021/08/23 06:50:37;;;;;;;4.88;2.60;;;16.60;99.90;;;;;;5073263;28;20029;-73
2021/08/23 06:53:03;;;;;;;4.25;2.50;;;16.40;99.90;;;;;;5074426;28;20035;-72
2021/08/23 06:55:30;;;;;;;3.15;2.85;;;16.50;99.90;;;;;;5073154;28;20390;-73
2021/08/23 06:57:56;;;;;;;4.97;2.78;;;16.80;99.90;;;;;;5074386;28;20094;-72
2021/08/23 07:00:22;;;;;;;3.42;2.25;;;17.10;99.90;;;;;;5072792;28;20425;-72
2021/08/23 07:02:48;;;;;;;3.38;2.75;;;16.90;99.90;;;;;;5074169;28;20017;-74
2021/08/23 07:05:14;;;;;;;3.70;2.45;;;17.10;99.90;;;;;;5073666;28;20493;-71
2021/08/23 07:07:40;;;;;;;4.97;2.35;;;17.00;99.90;;;;;;5073822;28;20036;-71
2021/08/23 07:10:11;;;;;;;5.10;2.85;;;16.90;99.90;;;;;;5072333;28;20052;-73
2021/08/23 07:12:38;;;;;;;4.35;2.03;;;17.20;99.90;;;;;;5073510;28;20821;-73
2021/08/23 07:15:04;;;;;;;2.88;2.00;;;17.00;99.90;;;;;;5073147;28;20027;-72
2021/08/23 07:17:30;;;;;;;6.82;2.33;;;17.10;99.90;;;;;;5073878;28;20059;-73
2021/08/23 07:19:55;;;;;;;3.38;2.25;;;17.10;99.90;;;;;;5073553;28;20064;-72
2021/08/23 07:22:23;;;;;;;6.28;2.38;;;17.10;99.90;;;;;;5073996;28;20025;-73
2021/08/23 07:24:48;;;;;;;4.15;2.20;;;17.00;99.90;;;;;;5073039;28;20020;-73
2021/08/23 07:27:14;;;;;;;2.60;1.98;;;16.90;99.90;;;;;;5073572;28;20750;-72
2021/08/23 07:29:41;;;;;;;3.83;2.10;;;17.10;99.90;;;;;;5073743;28;20028;-71
2021/08/23 07:32:07;;;;;;;3.90;2.28;;;17.10;99.90;;;;;;5073413;28;20108;-71
2021/08/23 07:34:33;;;;;;;5.38;2.22;;;17.00;99.90;;;;;;5071531;28;20103;-73
2021/08/23 07:36:59;;;;;;;2.30;1.98;;;17.30;99.90;;;;;;5073550;28;20491;-73
2021/08/23 07:39:24;;;;;;;3.45;2.00;;;17.20;99.90;;;;;;5073006;28;20056;-71
2021/08/23 07:41:50;;;;;;;3.67;1.88;;;17.50;99.90;;;;;;5073466;28;20043;-73
2021/08/23 07:44:16;;;;;;;3.55;2.35;;;17.70;99.90;;;;;;5073328;28;20109;-73
2021/08/23 07:46:42;;;;;;;5.75;2.13;;;17.60;99.90;;;;;;5073616;28;20028;-72
2021/08/23 07:49:08;;;;;;;4.53;1.95;;;17.80;99.90;;;;;;5073579;28;20035;-71
2021/08/23 07:51:34;;;;;;;3.95;1.95;;;18.00;99.90;;;;;;5072929;28;20119;-73
2021/08/23 07:53:59;;;;;;;3.30;2.20;;;17.80;99.90;;;;;;5072654;28;20035;-73
2021/08/23 07:56:25;;;;;;;4.65;2.15;;;17.90;99.90;;;;;;5071530;28;20024;-73
2021/08/23 07:58:50;;;;;;;8.43;2.97;;;17.90;99.90;;;;;;5072791;28;20044;-71
2021/08/23 08:01:16;;;;;;;2.85;2.20;;;17.40;99.90;;;;;;5073387;28;20039;-73
2021/08/23 08:03:42;;;;;;;5.10;2.05;;;17.50;99.90;;;;;;5072401;28;20032;-73
2021/08/23 08:06:08;;;;;;;6.13;2.30;;;17.70;99.90;;;;;;5072634;28;20031;-72
2021/08/23 08:08:33;;;;;;;3.05;2.20;;;18.00;99.90;;;;;;5072402;28;20025;-74
2021/08/23 08:10:59;;;;;;;3.20;1.90;;;18.40;99.90;;;;;;5072176;28;20099;-74
2021/08/23 08:13:25;;;;;;;3.30;2.15;;;18.80;99.90;;;;;;5055021;28;20067;-73
2021/08/23 08:15:52;;;;;;;4.45;2.33;;;19.00;99.90;;;;;;5052453;28;20028;-73
2021/08/23 08:18:18;;;;;;;5.22;1.70;;;19.30;99.90;;;;;;5053311;28;20545;-74
2021/08/23 08:20:44;;;;;;;3.88;1.80;;;19.30;99.90;;;;;;5053819;28;20562;-74
2021/08/23 08:23:10;;;;;;;5.75;1.90;;;19.60;99.90;;;;;;5053168;28;20036;-74
2021/08/23 08:25:35;;;;;;;6.60;1.98;;;19.90;99.90;;;;;;5052112;28;20033;-72
2021/08/23 08:28:01;;;;;;;3.78;2.00;;;20.50;99.90;;;;;;5064816;28;20029;-72
2021/08/23 08:30:27;;;;;;;3.65;1.92;;;20.10;99.90;;;;;;5072438;28;20032;-72
2021/08/23 08:32:52;;;;;;;3.03;2.17;;;19.60;99.90;;;;;;5072053;28;20012;-71
2021/08/23 08:35:18;;;;;;;5.65;1.92;;;19.30;99.90;;;;;;5071387;28;20028;-71
2021/08/23 08:37:44;;;;;;;3.70;2.00;;;19.30;99.90;;;;;;5072298;28;20020;-73
2021/08/23 08:40:11;;;;;;;4.40;1.92;;;19.60;99.90;;;;;;5072168;28;20029;-72
2021/08/23 08:42:36;;;;;;;3.38;1.98;;;19.90;99.90;;;;;;5072141;28;20028;-71
2021/08/23 08:45:03;;;;;;;4.35;1.98;;;20.20;99.90;;;;;;5071699;28;20039;-73
2021/08/23 08:47:30;;;;;;;3.80;2.40;;;20.40;99.90;;;;;;5071989;28;20027;-72
2021/08/23 08:49:59;;;;;;;6.20;2.10;;;20.50;99.90;;;;;;5072148;28;20104;-70
2021/08/23 08:52:25;;;;;;;4.68;2.40;;;20.70;99.90;;;;;;5070915;28;20021;-72
2021/08/23 08:54:51;;;;;;;4.25;2.10;;;20.50;99.90;;;;;;5071226;28;20016;-71
2021/08/23 08:57:17;;;;;;;4.88;2.13;;;20.80;99.90;;;;;;5071593;28;20542;-71
2021/08/23 08:59:42;;;;;;;3.92;1.90;;;20.60;99.90;;;;;;5071691;28;20112;-72
2021/08/23 09:02:08;;;;;;;3.85;2.35;;;20.70;99.90;;;;;;5072078;28;20474;-70
2021/08/23 09:04:37;;;;;;;5.72;1.77;;;20.40;99.90;;;;;;5071237;28;20467;-71
2021/08/23 09:07:04;;;;;;;3.92;1.67;;;20.80;99.90;;;;;;5070130;28;20024;-70
2021/08/23 09:09:31;;;;;;;2.85;1.50;;;20.90;99.90;;;;;;5053841;28;20104;-73
2021/08/23 09:12:11;;;;;;;3.42;1.88;;;20.10;99.90;;;;;;5051429;28;20096;-70
2021/08/23 09:14:54;;;;;;;4.53;2.22;;;20.60;99.90;;;;;;5050869;28;20029;-71
2021/08/23 09:17:26;;;;;;;3.78;1.70;;;20.30;99.90;;;;;;5051067;28;20113;-70
2021/08/23 09:20:03;;;;;;;4.45;2.15;;;20.50;99.90;;;;;;5049643;28;20028;-71
2021/08/23 09:22:29;;;;;;;2.20;1.98;;;20.30;99.90;;;;;;5051427;28;20107;-72
2021/08/23 09:24:55;;;;;;;2.90;1.83;;;20.90;99.90;;;;;;5050882;28;20044;-70
2021/08/23 09:27:21;;;;;;;3.67;2.30;;;20.70;99.90;;;;;;5056450;28;20082;-70
2021/08/23 09:29:55;;;;;;;6.22;1.70;;;21.10;99.90;;;;;;5071381;28;20024;-72
2021/08/23 09:32:26;;;;;;;2.35;1.70;;;21.40;99.90;;;;;;5071111;28;20056;-71
2021/08/23 09:34:51;;;;;;;4.97;2.08;;;21.20;99.90;;;;;;5070621;28;20490;-73
2021/08/23 09:37:23;;;;;;;2.78;1.73;;;20.90;99.90;;;;;;5071674;28;20095;-70
2021/08/23 09:39:49;;;;;;;3.05;2.03;;;21.00;99.90;;;;;;5071584;28;20103;-72
2021/08/23 09:42:23;;;;;;;2.80;2.08;;;21.40;99.90;;;;;;5070602;28;20501;-71
2021/08/23 09:44:50;;;;;;;2.80;1.83;;;21.00;99.90;;;;;;5070458;28;20055;-70
2021/08/23 09:47:16;;;;;;;2.90;1.58;;;20.30;99.90;;;;;;5071337;28;20086;-71
2021/08/23 09:49:45;;;;;;;5.47;2.05;;;21.00;99.90;;;;;;5071344;28;20020;-72
2021/08/23 09:52:21;;;;;;;5.03;2.35;;;21.30;99.90;;;;;;5071252;28;20028;-71
2021/08/23 09:55:04;;;;;;;4.20;2.22;;;21.00;99.90;;;;;;5069981;28;20033;-71
2021/08/23 09:57:36;;;;;;;4.80;2.30;;;20.80;99.90;;;;;;5071389;28;20029;-71
2021/08/23 10:00:05;;;;;;;3.07;2.00;;;20.80;99.90;;;;;;5071423;28;20456;-71
2021/08/23 10:02:31;;;;;;;2.55;1.92;;;20.90;99.90;;;;;;5071354;28;20082;-71
2021/08/23 10:04:59;;;;;;;5.28;2.05;;;20.50;99.90;;;;;;5069271;28;20043;-72
2021/08/23 10:07:27;;;;;;;2.13;1.85;;;20.50;99.90;;;;;;5068852;28;20025;-71
2021/08/23 10:09:53;;;;;;;5.53;2.10;;;20.60;99.90;;;;;;5071173;28;20024;-71
2021/08/23 10:12:19;;;;;;;4.53;2.03;;;20.80;99.90;;;;;;5068485;28;20051;-73
2021/08/23 10:14:44;;;;;;;2.47;1.80;;;20.80;99.90;;;;;;5069981;28;20067;-72
2021/08/23 10:17:10;;;;;;;2.53;1.60;;;20.40;99.90;;;;;;5071338;28;20025;-71
2021/08/23 10:19:37;;;;;;;2.63;1.80;;;20.60;99.90;;;;;;5069750;28;20028;-71
2021/08/23 10:22:03;;;;;;;2.65;1.83;;;20.80;99.90;;;;;;5071131;28;20024;-70
2021/08/23 10:24:30;;;;;;;4.80;2.20;;;21.20;99.90;;;;;;5070491;28;20178;-69
2021/08/23 10:26:57;;;;;;;3.38;1.88;;;21.30;99.90;;;;;;5070342;28;20055;-71
2021/08/23 10:29:24;;;;;;;5.13;2.00;;;21.10;99.90;;;;;;5070964;28;20455;-70
2021/08/23 10:31:50;;;;;;;4.68;2.05;;;20.80;99.90;;;;;;5070733;28;20103;-72
2021/08/23 10:34:21;;;;;;;3.40;1.77;;;21.00;99.90;;;;;;5070395;28;20700;-72
2021/08/23 10:36:49;;;;;;;3.85;2.03;;;21.60;99.90;;;;;;5070197;28;20506;-72
2021/08/23 10:39:21;;;;;;;5.22;1.85;;;22.10;99.90;;;;;;5070857;28;20051;-73
2021/08/23 10:41:46;;;;;;;;;;;22.20;99.90;;;;;;5070899;28;20036;-73
2021/08/23 10:44:24;;;;;;;3.95;2.10;;;22.20;99.90;;;;;;5070915;28;20393;-73
2021/08/23 10:46:49;;;;;;;2.20;1.80;;;22.40;99.90;;;;;;5070386;28;20048;-72
2021/08/23 10:49:16;;;;;;;1.92;1.75;;;22.60;99.90;;;;;;5070622;28;20048;-70
2021/08/23 10:51:56;;;;;;;5.38;2.05;;;23.00;99.90;;;;;;5066015;28;20475;-72
2021/08/23 10:54:27;;;;;;;2.90;1.65;;;22.50;99.90;;;;;;5070830;28;20025;-71
2021/08/23 10:56:56;;;;;;;5.47;2.13;;;22.40;99.90;;;;;;5074484;28;20052;-72
2021/08/23 10:59:21;;;;;;;2.38;1.90;;;21.60;99.90;;;;;;5072960;28;20367;-72
2021/08/23 11:01:58;;;;;;;5.93;1.80;;;21.90;99.90;;;;;;5074283;28;20043;-72
2021/08/23 11:04:36;;;;;;;2.83;1.73;;;22.20;99.90;;;;;;5074113;28;20024;-72
2021/08/23 11:07:03;;;;;;;5.25;1.48;;;23.30;99.90;;;;;;5073782;28;20095;-71
2021/08/23 11:09:32;;;;;;;2.42;1.40;;;23.80;99.90;;;;;;5073894;28;20142;-72
2021/08/23 11:12:16;;;;;;;4.45;1.60;;;23.60;99.90;;;;;;5073937;28;20052;-72
2021/08/23 11:14:44;;;;;;;4.50;1.80;;;22.40;99.90;;;;;;5073428;28;20020;-71
2021/08/23 11:17:10;;;;;;;4.18;1.40;;;23.00;99.90;;;;;;5074127;28;20021;-72
2021/08/23 11:19:40;;;;;;;1.42;1.30;;;24.60;99.90;;;;;;5074159;28;20111;-70
2021/08/23 11:22:06;;;;;;;2.63;1.70;;;24.50;99.90;;;;;;5073985;28;20028;-72
2021/08/23 11:24:33;;;;;;;2.90;1.90;;;23.50;99.90;;;;;;5073510;28;20020;-71
2021/08/23 11:27:02;;;;;;;2.17;1.92;;;22.70;99.90;;;;;;5073766;28;20047;-72
2021/08/23 11:29:38;;;;;;;5.60;2.20;;;22.50;99.90;;;;;;5073894;28;20386;-72
2021/08/23 11:32:08;;;;;;;4.05;1.95;;;22.40;99.90;;;;;;5073908;28;20412;-72
2021/08/23 11:34:35;;;;;;;6.30;2.22;;;22.50;99.90;;;;;;5073341;28;20029;-71
2021/08/23 11:37:04;;;;;;;5.07;2.33;;;22.20;99.90;;;;;;5073241;28;20028;-72
2021/08/23 11:39:31;;;;;;;3.67;2.58;;;21.80;99.90;;;;;;5073727;28;20056;-72
2021/08/23 11:41:59;;;;;;;4.18;2.33;;;21.40;99.90;;;;;;5073817;28;20047;-72
2021/08/23 11:44:25;;;;;;;4.07;2.90;;;21.00;99.90;;;;;;5073119;28;20036;-71
2021/08/23 11:46:56;;;;;;;2.08;1.83;;;21.10;99.90;;;;;;5073377;28;20025;-71
2021/08/23 11:49:29;;;;;;;2.75;2.28;;;21.30;99.90;;;;;;5073204;28;20115;-73
2021/08/23 11:51:55;;;;;;;2.67;1.80;;;21.60;99.90;;;;;;5073301;28;20021;-72
2021/08/23 11:54:21;;;;;;;2.75;2.20;;;21.40;99.90;;;;;;5071581;28;20042;-72
2021/08/23 11:56:46;;;;;;;4.45;2.60;;;21.20;99.90;;;;;;5073029;28;20035;-74
2021/08/23 11:59:13;;;;;;;2.40;2.17;;;21.90;99.90;;;;;;5073067;28;20042;-75
2021/08/23 12:01:39;;;;;;;4.60;2.10;;;21.80;99.90;;;;;;5073536;28;20082;-73
2021/08/23 12:04:04;;;;;;;3.25;2.20;;;22.10;99.90;;;;;;5071608;28;20024;-72
2021/08/23 12:06:36;;;;;;;2.47;2.08;;;23.70;99.90;;;;;;5070879;28;20079;-72
2021/08/23 12:09:03;;;;;;;;;;;24.40;99.90;;;;;;5073645;28;20390;-73
2021/08/23 12:11:41;;;;;;;3.38;1.92;;;23.20;99.90;;;;;;5071661;28;19912;-73
2021/08/23 12:14:16;;;;;;;3.30;2.10;;;22.60;99.90;;;;;;5073206;28;20107;-74
2021/08/23 12:16:44;;;;;;;2.08;1.98;;;22.90;99.90;;;;;;5072614;28;20372;-73
2021/08/23 12:19:12;;;;;;;3.25;1.65;;;22.30;99.90;;;;;;5071361;28;20033;-73
2021/08/23 12:21:39;;;;;;;3.08;1.60;;;22.40;99.90;;;;;;5072582;28;20029;-74
2021/08/23 12:24:15;;;;;;;9.60;2.17;;;23.00;99.90;;;;;;5072592;28;20033;-73
2021/08/23 12:26:50;;;;;;;7.63;1.70;;;23.80;99.90;;;;;;5068095;28;20082;-73
2021/08/23 12:29:22;;;;;;;5.47;2.08;;;23.90;99.90;;;;;;5072168;28;20068;-72
2021/08/23 12:31:53;;;;;;;;;;;23.80;99.90;;;;;;5071879;28;20044;-72
2021/08/23 12:34:34;;;;;;;2.25;1.50;;;23.70;99.90;;;;;;5071631;28;19957;-73
2021/08/23 12:37:02;;;;;;;3.10;1.73;;;23.40;99.90;;;;;;5067126;28;20039;-71
2021/08/23 12:39:29;;;;;;;6.82;1.90;;;23.00;99.90;;;;;;5072134;28;20074;-72
2021/08/23 12:41:57;;;;;;;1.90;1.70;;;23.60;99.90;;;;;;5071895;28;20546;-73
2021/08/23 12:44:23;;;;;;;1.60;1.35;;;22.70;99.90;;;;;;5069036;28;20382;-72